createdAt,value
2023-02-17T00:02:39.682Z,1.09
2023-02-17T00:05:40.272Z,1.13
2023-02-17T00:08:46.216Z,1.13
2023-02-17T00:11:47.480Z,1.13
2023-02-17T00:14:54.341Z,1.10
2023-02-17T00:17:55.288Z,1.11
2023-02-17T00:21:00.232Z,1.10
2023-02-17T00:24:03.854Z,1.06
2023-02-17T00:27:06.398Z,1.04
2023-02-17T00:30:09.540Z,1.03
2023-02-17T00:33:10.347Z,1.01
2023-02-17T00:36:11.302Z,0.99
2023-02-17T00:39:11.460Z,0.95
2023-02-17T00:42:11.272Z,0.86
2023-02-17T00:45:14.855Z,0.77
2023-02-17T00:48:16.320Z,0.69
2023-02-17T00:51:16.344Z,0.61
2023-02-17T00:54:18.339Z,0.58
2023-02-17T00:57:21.416Z,0.58
2023-02-17T01:00:23.324Z,0.61
2023-02-17T01:03:24.368Z,0.61
2023-02-17T01:06:34.354Z,0.61
2023-02-17T01:09:34.369Z,0.61
2023-02-17T01:12:36.393Z,0.61
2023-02-17T01:15:37.353Z,0.56
2023-02-17T01:18:41.374Z,0.53
2023-02-17T01:21:44.592Z,0.49
2023-02-17T01:24:44.493Z,0.49
2023-02-17T01:27:44.376Z,0.49
2023-02-17T01:30:45.483Z,0.53
2023-02-17T01:33:47.418Z,0.60
2023-02-17T01:36:48.562Z,0.65
2023-02-17T01:39:49.412Z,0.67
2023-02-17T01:42:50.428Z,0.72
2023-02-17T01:46:04.740Z,0.75
2023-02-17T01:49:05.469Z,0.77
2023-02-17T01:52:14.479Z,0.80
2023-02-17T01:55:21.457Z,0.86
2023-02-17T01:58:21.430Z,0.91
2023-02-17T02:01:21.952Z,0.97
2023-02-17T02:04:23.459Z,1.02
2023-02-17T02:07:30.486Z,1.06
2023-02-17T02:10:33.675Z,1.11
2023-02-17T02:13:35.468Z,1.14
2023-02-17T02:17:00.482Z,1.11
2023-02-17T02:20:11.065Z,1.04
2023-02-17T02:23:47.613Z,0.97
2023-02-17T02:27:02.487Z,0.92
2023-02-17T02:30:29.573Z,0.91
2023-02-17T02:33:41.695Z,0.98
2023-02-17T02:36:51.627Z,0.99
2023-02-17T02:39:53.760Z,1.00
2023-02-17T02:42:55.500Z,1.01
2023-02-17T02:45:57.668Z,1.01
2023-02-17T02:48:57.493Z,1.00
2023-02-17T02:52:02.542Z,1.02
2023-02-17T02:55:27.515Z,1.02
2023-02-17T02:58:42.546Z,1.02
2023-02-17T03:02:29.575Z,1.02
2023-02-17T03:05:47.783Z,1.08
2023-02-17T03:08:50.581Z,1.10
2023-02-17T03:11:52.542Z,1.08
2023-02-17T03:14:58.818Z,1.09
2023-02-17T03:17:58.609Z,1.09
2023-02-17T03:21:05.260Z,1.08
2023-02-17T03:24:08.692Z,1.09
2023-02-17T03:27:11.574Z,1.08
2023-02-17T03:30:12.578Z,1.06
2023-02-17T03:33:12.566Z,1.04
2023-02-17T03:36:12.569Z,1.02
2023-02-17T03:39:16.608Z,0.99
2023-02-17T03:42:16.695Z,1.01
2023-02-17T03:45:17.609Z,1.03
2023-02-17T03:48:24.898Z,1.03
2023-02-17T03:51:27.675Z,1.02
2023-02-17T03:54:29.651Z,1.04
2023-02-17T03:57:29.692Z,1.05
2023-02-17T04:00:29.712Z,1.04
2023-02-17T04:03:32.738Z,1.02
2023-02-17T04:06:33.711Z,0.97
2023-02-17T04:09:37.858Z,0.94
2023-02-17T04:12:39.078Z,0.94
2023-02-17T04:15:41.728Z,0.91
2023-02-17T04:18:42.776Z,0.90
2023-02-17T04:21:43.717Z,0.86
2023-02-17T04:24:44.720Z,0.83
2023-02-17T04:27:44.690Z,0.81
2023-02-17T04:30:45.771Z,0.81
2023-02-17T04:33:53.202Z,0.83
2023-02-17T04:36:53.780Z,0.83
2023-02-17T04:39:54.913Z,0.83
2023-02-17T04:42:55.798Z,0.85
2023-02-17T04:45:58.760Z,0.85
2023-02-17T04:49:01.673Z,0.87
2023-02-17T04:52:01.760Z,0.86
2023-02-17T04:55:02.716Z,0.85
2023-02-17T04:58:02.756Z,0.82
2023-02-17T05:01:04.779Z,0.80
2023-02-17T05:04:04.726Z,0.74
2023-02-17T05:07:06.799Z,0.72
2023-02-17T05:10:13.758Z,0.70
2023-02-17T05:13:17.820Z,0.71
2023-02-17T05:16:24.787Z,0.74
2023-02-17T05:19:24.770Z,0.74
2023-02-17T05:22:25.777Z,0.70
2023-02-17T05:25:26.789Z,0.69
2023-02-17T05:28:29.297Z,0.73
2023-02-17T05:31:31.895Z,0.74
2023-02-17T05:34:33.319Z,0.71
2023-02-17T05:37:35.789Z,0.70
2023-02-17T05:40:39.270Z,0.68
2023-02-17T05:43:41.846Z,0.63
2023-02-17T05:46:45.120Z,0.59
2023-02-17T05:49:44.999Z,0.60
2023-02-17T05:52:51.767Z,0.58
2023-02-17T05:55:53.866Z,0.49
2023-02-17T05:58:53.817Z,0.44
2023-02-17T06:01:57.912Z,0.40
2023-02-17T06:05:00.993Z,0.40
2023-02-17T06:08:04.822Z,0.48
2023-02-17T06:11:08.204Z,0.56
2023-02-17T06:14:07.848Z,0.60
2023-02-17T06:17:12.180Z,0.60
2023-02-17T06:20:17.904Z,0.62
2023-02-17T06:23:17.910Z,0.64
2023-02-17T06:26:21.942Z,0.63
2023-02-17T06:29:24.914Z,0.61
2023-02-17T06:32:26.111Z,0.60
2023-02-17T06:35:28.366Z,0.57
2023-02-17T06:38:30.269Z,0.56
2023-02-17T06:41:31.387Z,0.62
2023-02-17T06:44:37.092Z,0.64
2023-02-17T06:47:38.917Z,0.67
2023-02-17T06:50:39.953Z,0.65
2023-02-17T06:53:41.979Z,0.58
2023-02-17T06:56:45.768Z,0.58
2023-02-17T06:59:49.362Z,0.64
2023-02-17T07:02:52.190Z,0.70
2023-02-17T07:05:54.150Z,0.77
2023-02-17T07:08:55.077Z,0.80
2023-02-17T07:11:56.940Z,0.82
2023-02-17T07:14:59.317Z,0.83
2023-02-17T07:18:01.217Z,0.89
2023-02-17T07:21:03.024Z,0.92
2023-02-17T07:24:02.993Z,0.93
2023-02-17T07:27:04.003Z,0.99
2023-02-17T07:30:03.998Z,1.01
2023-02-17T07:33:06.892Z,1.01
2023-02-17T07:36:09.038Z,1.01
2023-02-17T07:39:09.024Z,1.06
2023-02-17T07:42:11.015Z,1.13
2023-02-17T07:45:15.034Z,1.23
2023-02-17T07:48:16.089Z,1.31
2023-02-17T07:51:20.016Z,1.38
2023-02-17T07:54:22.098Z,1.40
2023-02-17T07:57:26.242Z,1.39
2023-02-17T08:00:30.444Z,1.41
2023-02-17T08:03:31.049Z,1.40
2023-02-17T08:06:36.229Z,1.43
2023-02-17T08:09:56.066Z,1.40
2023-02-17T08:13:15.095Z,1.46
2023-02-17T08:19:47.544Z,1.51
2023-02-17T08:22:51.088Z,1.53
2023-02-17T08:26:12.252Z,1.57
2023-02-17T08:29:25.809Z,1.61
2023-02-17T08:32:28.157Z,1.62
2023-02-17T08:35:36.631Z,1.59
2023-02-17T08:38:46.308Z,1.52
2023-02-17T08:41:52.193Z,1.52
2023-02-17T08:45:01.462Z,1.58
2023-02-17T08:48:10.346Z,1.68
2023-02-17T08:51:13.320Z,1.75
2023-02-17T08:54:16.288Z,1.81
2023-02-17T08:57:21.448Z,1.65
2023-02-17T09:00:27.735Z,1.49
2023-02-17T09:03:33.202Z,1.47
2023-02-17T09:06:34.157Z,1.46
2023-02-17T09:09:37.292Z,1.43
2023-02-17T09:12:42.776Z,1.49
2023-02-17T09:15:44.257Z,1.59
2023-02-17T09:18:47.167Z,1.69
2023-02-17T09:21:48.744Z,1.73
2023-02-17T09:24:52.251Z,1.78
2023-02-17T09:27:55.767Z,1.82
2023-02-17T09:31:05.406Z,1.82
2023-02-17T09:34:12.874Z,1.81
2023-02-17T09:37:14.209Z,1.80
2023-02-17T09:40:18.189Z,1.86
2023-02-17T09:43:31.767Z,1.96
2023-02-17T09:46:37.295Z,1.99
2023-02-17T09:49:41.305Z,2.01
2023-02-17T09:53:11.336Z,2.11
2023-02-17T09:56:12.269Z,2.20
2023-02-17T09:59:50.273Z,2.26
2023-02-17T10:03:04.324Z,2.34
2023-02-17T10:06:22.278Z,2.41
2023-02-17T10:09:56.327Z,2.37
2023-02-17T10:13:04.453Z,2.36
2023-02-17T10:16:09.474Z,2.31
2023-02-17T10:19:13.272Z,2.26
2023-02-17T10:22:32.284Z,2.21
2023-02-17T10:25:52.414Z,2.22
2023-02-17T10:29:10.420Z,2.26
2023-02-17T10:32:34.813Z,2.31
2023-02-17T10:35:56.425Z,2.29
2023-02-17T10:39:05.292Z,2.27
2023-02-17T10:42:05.290Z,2.31
2023-02-17T10:45:13.360Z,2.29
2023-02-17T10:48:20.301Z,2.21
2023-02-17T10:51:26.311Z,2.19
2023-02-17T10:54:35.339Z,2.18
2023-02-17T10:57:38.593Z,2.24
2023-02-17T11:00:40.365Z,2.33
2023-02-17T11:03:44.377Z,2.37
2023-02-17T11:06:44.320Z,2.42
2023-02-17T11:09:47.395Z,2.46
2023-02-17T11:12:52.605Z,2.48
2023-02-17T11:15:59.835Z,2.47
2023-02-17T11:19:02.381Z,2.46
2023-02-17T11:22:05.568Z,2.44
2023-02-17T11:25:15.634Z,2.43
2023-02-17T11:28:23.838Z,2.43
2023-02-17T11:31:42.712Z,2.42
2023-02-17T11:34:43.440Z,2.40
2023-02-17T11:37:43.486Z,2.32
2023-02-17T11:40:47.394Z,2.31
2023-02-17T11:44:11.448Z,2.33
2023-02-17T11:47:16.828Z,2.34
2023-02-17T11:50:50.467Z,2.19
2023-02-17T11:54:00.437Z,2.18
2023-02-17T11:57:44.381Z,2.26
2023-02-17T12:01:23.529Z,2.35
2023-02-17T12:04:39.525Z,2.39
2023-02-17T12:08:18.462Z,2.40
2023-02-17T12:11:32.412Z,2.33
2023-02-17T12:15:01.546Z,2.18
2023-02-17T12:18:46.237Z,2.13
2023-02-17T12:22:07.516Z,2.15
2023-02-17T12:25:24.480Z,2.14
2023-02-17T12:28:39.593Z,2.09
2023-02-17T12:32:02.668Z,2.06
2023-02-17T12:35:10.639Z,2.03
2023-02-17T12:38:16.702Z,2.02
2023-02-17T12:41:19.527Z,2.04
2023-02-17T12:44:25.702Z,2.05
2023-02-17T12:47:35.733Z,2.10
2023-02-17T12:50:55.499Z,2.14
2023-02-17T12:54:13.057Z,2.17
2023-02-17T12:57:26.585Z,2.16
2023-02-17T13:00:39.771Z,2.13
2023-02-17T13:03:47.887Z,2.11
2023-02-17T13:06:51.557Z,2.10
2023-02-17T13:09:59.601Z,2.07
2023-02-17T13:13:09.758Z,2.05
2023-02-17T13:16:25.564Z,2.02
2023-02-17T13:19:28.019Z,2.00
2023-02-17T13:22:35.675Z,1.93
2023-02-17T13:25:45.564Z,1.88
2023-02-17T13:28:53.131Z,1.86
2023-02-17T13:32:02.719Z,1.82
2023-02-17T13:35:13.759Z,1.76
2023-02-17T13:38:15.683Z,1.71
2023-02-17T13:41:18.577Z,1.72
2023-02-17T13:44:39.724Z,1.69
2023-02-17T13:47:49.700Z,1.70
2023-02-17T13:50:57.708Z,1.67
2023-02-17T13:54:02.689Z,1.66
2023-02-17T13:57:08.147Z,1.65
2023-02-17T14:00:41.671Z,1.65
2023-02-17T14:03:56.654Z,1.63
2023-02-17T14:06:56.875Z,1.62
2023-02-17T14:10:06.399Z,1.60
2023-02-17T14:13:07.732Z,1.62
2023-02-17T14:16:10.965Z,1.58
2023-02-17T14:19:19.510Z,1.48
2023-02-17T14:22:21.756Z,1.44
2023-02-17T14:25:26.257Z,1.39
2023-02-17T14:28:36.907Z,1.31
2023-02-17T14:31:41.148Z,1.27
2023-02-17T14:34:44.917Z,1.20
2023-02-17T14:37:45.914Z,1.15
2023-02-17T14:40:46.672Z,1.18
2023-02-17T14:43:48.691Z,1.18
2023-02-17T14:46:48.799Z,1.11
2023-02-17T14:49:49.755Z,1.00
2023-02-17T14:52:59.741Z,0.94
2023-02-17T14:56:25.714Z,0.91
2023-02-17T14:59:25.724Z,0.88
2023-02-17T15:02:32.142Z,0.86
2023-02-17T15:05:37.795Z,0.86
2023-02-17T15:08:46.411Z,0.85
2023-02-17T15:11:51.884Z,0.81
2023-02-17T15:14:56.835Z,0.80
2023-02-17T15:18:10.279Z,0.79
2023-02-17T15:21:14.006Z,0.80
2023-02-17T15:24:38.829Z,0.81
2023-02-17T15:27:43.101Z,0.79
2023-02-17T15:30:47.245Z,0.76
2023-02-17T15:33:48.823Z,0.72
2023-02-17T15:36:52.417Z,0.72
2023-02-17T15:39:59.397Z,0.70
2023-02-17T15:43:15.819Z,0.65
2023-02-17T15:46:30.081Z,0.62
2023-02-17T15:49:33.851Z,0.61
2023-02-17T15:52:37.873Z,0.55
2023-02-17T15:55:43.827Z,0.49
2023-02-17T15:58:47.379Z,0.44
2023-02-17T16:01:52.193Z,0.38
2023-02-17T16:04:54.999Z,0.35
2023-02-17T16:07:59.806Z,0.32
2023-02-17T16:11:05.410Z,0.27
2023-02-17T16:14:11.009Z,0.21
2023-02-17T16:17:14.422Z,0.13
2023-02-17T16:20:26.285Z,0.08
2023-02-17T16:23:33.104Z,0.04
2023-02-17T16:26:47.029Z,-0.02
2023-02-17T16:29:48.074Z,-0.09
2023-02-17T16:32:56.917Z,-0.12
2023-02-17T16:36:14.121Z,-0.17
2023-02-17T16:39:29.941Z,-0.21
2023-02-17T16:42:36.505Z,-0.23
2023-02-17T16:45:44.223Z,-0.29
2023-02-17T16:48:48.972Z,-0.38
2023-02-17T16:51:52.486Z,-0.42
2023-02-17T16:55:01.927Z,-0.47
2023-02-17T16:58:07.016Z,-0.49
2023-02-17T17:01:12.523Z,-0.51
2023-02-17T17:04:17.109Z,-0.51
2023-02-17T17:07:20.279Z,-0.54
2023-02-17T17:10:24.978Z,-0.54
2023-02-17T17:13:29.575Z,-0.53
2023-02-17T17:16:39.325Z,-0.51
2023-02-17T17:19:43.032Z,-0.49
2023-02-17T17:22:45.224Z,-0.52
2023-02-17T17:25:57.216Z,-0.54
2023-02-17T17:29:00.042Z,-0.58
2023-02-17T17:32:02.270Z,-0.60
2023-02-17T17:35:07.502Z,-0.59
2023-02-17T17:38:08.455Z,-0.59
2023-02-17T17:41:17.227Z,-0.57
2023-02-17T17:44:17.985Z,-0.54
2023-02-17T17:47:29.432Z,-0.50
2023-02-17T17:50:37.086Z,-0.49
2023-02-17T17:53:41.849Z,-0.49
2023-02-17T17:56:52.980Z,-0.50
2023-02-17T17:59:55.269Z,-0.56
2023-02-17T18:02:58.225Z,-0.61
2023-02-17T18:06:10.755Z,-0.63
2023-02-17T18:09:31.778Z,-0.70
2023-02-17T18:12:33.175Z,-0.75
2023-02-17T18:15:38.122Z,-0.74
2023-02-17T18:18:39.164Z,-0.74
2023-02-17T18:21:41.912Z,-0.75
2023-02-17T18:24:43.180Z,-0.78
2023-02-17T18:28:03.622Z,-0.79
2023-02-17T18:31:14.211Z,-0.83
2023-02-17T18:34:15.311Z,-0.84
2023-02-17T18:37:17.084Z,-0.84
2023-02-17T18:40:21.159Z,-0.83
2023-02-17T18:43:23.281Z,-0.80
2023-02-17T18:46:26.756Z,-0.85
2023-02-17T18:49:25.127Z,-0.88
2023-02-17T18:52:28.544Z,-0.88
2023-02-17T18:55:43.393Z,-0.91
2023-02-17T18:58:45.156Z,-0.93
2023-02-17T19:01:59.268Z,-0.94
2023-02-17T19:05:14.287Z,-0.92
2023-02-17T19:08:34.733Z,-0.87
2023-02-17T19:11:42.223Z,-0.88
2023-02-17T19:15:04.172Z,-0.86
2023-02-17T19:18:36.857Z,-0.86
2023-02-17T19:25:52.357Z,-0.81
2023-02-17T19:29:21.001Z,-0.80
2023-02-17T19:32:53.816Z,-0.82
2023-02-17T19:39:40.979Z,-0.79
2023-02-17T19:54:19.481Z,-0.71
2023-02-17T19:57:49.497Z,-0.71
2023-02-17T20:01:58.924Z,-0.74
2023-02-17T20:06:01.606Z,-0.78
2023-02-17T20:09:47.950Z,-0.79
2023-02-17T20:13:08.715Z,-0.78
2023-02-17T20:24:02.461Z,-0.70
2023-02-17T20:31:24.660Z,-0.70
2023-02-17T20:35:00.741Z,-0.70
2023-02-17T20:38:18.978Z,-0.72
2023-02-17T20:41:52.297Z,-0.72
2023-02-17T20:44:59.442Z,-0.71
2023-02-17T20:48:21.369Z,-0.69
2023-02-17T20:51:34.133Z,-0.66
2023-02-17T20:54:52.206Z,-0.64
2023-02-17T20:58:06.692Z,-0.60
2023-02-17T21:01:32.933Z,-0.59
2023-02-17T21:08:05.227Z,-0.53
2023-02-17T21:11:15.536Z,-0.53
2023-02-17T21:14:22.827Z,-0.53
2023-02-17T21:17:40.465Z,-0.53
2023-02-17T21:20:46.576Z,-0.53
2023-02-17T21:24:05.783Z,-0.53
2023-02-17T21:27:14.788Z,-0.51
2023-02-17T21:30:37.601Z,-0.50
2023-02-17T21:33:41.680Z,-0.48
2023-02-17T21:36:57.840Z,-0.45
2023-02-17T21:40:26.355Z,-0.43
2023-02-17T21:43:52.646Z,-0.41
2023-02-17T21:46:57.471Z,-0.43
2023-02-17T21:50:05.729Z,-0.44
2023-02-17T21:56:46.200Z,-0.42
2023-02-17T21:59:50.404Z,-0.41
2023-02-17T22:03:13.392Z,-0.41
2023-02-17T22:09:57.792Z,-0.38
2023-02-17T22:13:10.177Z,-0.36
2023-02-17T22:16:19.593Z,-0.35
2023-02-17T22:19:33.463Z,-0.32
2023-02-17T22:26:56.802Z,-0.29
2023-02-17T22:30:27.894Z,-0.27
2023-02-17T22:33:32.470Z,-0.24
2023-02-17T22:36:36.533Z,-0.22
2023-02-17T22:39:39.748Z,-0.21
2023-02-17T22:42:52.575Z,-0.23
2023-02-17T22:47:05.088Z,-0.19
2023-02-17T22:50:09.096Z,-0.20
2023-02-17T22:53:15.853Z,-0.19
2023-02-17T22:56:21.341Z,-0.18
2023-02-17T22:59:25.125Z,-0.17
2023-02-17T23:02:32.313Z,-0.17
2023-02-17T23:05:43.106Z,-0.16
2023-02-17T23:08:50.597Z,-0.13
2023-02-17T23:12:00.655Z,-0.12
2023-02-17T23:15:12.935Z,-0.11
2023-02-17T23:18:15.220Z,-0.10
2023-02-17T23:21:24.342Z,-0.11
2023-02-17T23:24:29.404Z,-0.12
2023-02-17T23:27:36.411Z,-0.14
2023-02-17T23:30:39.851Z,-0.14
2023-02-17T23:33:43.249Z,-0.14
2023-02-17T23:36:51.891Z,-0.13
2023-02-17T23:40:00.196Z,-0.14
2023-02-17T23:43:12.407Z,-0.09
2023-02-17T23:46:13.499Z,-0.07
2023-02-17T23:49:16.411Z,-0.04
2023-02-17T23:52:21.990Z,-0.01
2023-02-17T23:55:28.429Z,0.01
2023-02-17T23:58:34.763Z,0.04
